createdAt,value
2022-10-04T00:02:00.313Z,83.71
2022-10-04T00:04:34.585Z,83.61
2022-10-04T00:07:09.267Z,83.93
2022-10-04T00:09:45.473Z,83.74
2022-10-04T00:12:24.410Z,83.41
2022-10-04T00:14:57.094Z,83.60
2022-10-04T00:17:31.122Z,84.17
2022-10-04T00:22:36.380Z,84.49
2022-10-04T00:25:20.298Z,85.19
2022-10-04T00:28:25.880Z,85.24
2022-10-04T00:31:14.599Z,85.15
2022-10-04T00:33:45.029Z,85.04
2022-10-04T00:36:46.222Z,85.28
2022-10-04T00:39:44.402Z,84.93
2022-10-04T00:42:40.221Z,84.47
2022-10-04T00:45:26.957Z,84.86
2022-10-04T00:48:13.495Z,84.95
2022-10-04T00:50:45.649Z,84.64
2022-10-04T00:53:27.732Z,84.42
2022-10-04T00:56:02.892Z,84.31
2022-10-04T00:58:37.667Z,84.06
2022-10-04T01:01:07.750Z,83.93
2022-10-04T01:03:42.285Z,84.15
2022-10-04T01:06:13.920Z,84.03
2022-10-04T01:08:50.518Z,84.06
2022-10-04T01:11:23.086Z,84.05
2022-10-04T01:14:00.783Z,84.29
2022-10-04T01:16:37.688Z,84.18
2022-10-04T01:22:13.602Z,83.95
2022-10-04T01:24:51.192Z,84.09
2022-10-04T01:27:38.004Z,84.12
2022-10-04T01:30:11.001Z,84.51
2022-10-04T01:32:41.451Z,84.56
2022-10-04T01:35:19.979Z,84.59
2022-10-04T01:37:55.337Z,84.63
2022-10-04T01:40:26.780Z,85.02
2022-10-04T01:43:14.238Z,85.60
2022-10-04T01:45:48.629Z,86.03
2022-10-04T01:48:23.216Z,86.56
2022-10-04T01:50:58.982Z,86.89
2022-10-04T01:53:32.738Z,87.82
2022-10-04T01:56:12.892Z,88.89
2022-10-04T01:58:45.889Z,89.28
2022-10-04T02:04:16.278Z,89.79
2022-10-04T02:06:53.688Z,90.19
2022-10-04T02:09:28.226Z,90.96
2022-10-04T02:12:04.792Z,91.25
2022-10-04T02:14:40.188Z,91.40
2022-10-04T02:17:10.637Z,91.06
2022-10-04T02:19:44.608Z,91.69
2022-10-04T02:22:15.083Z,92.11
2022-10-04T02:24:46.413Z,92.56
2022-10-04T02:27:18.006Z,92.72
2022-10-04T02:29:47.216Z,93.25
2022-10-04T02:32:29.777Z,93.45
2022-10-04T02:34:59.933Z,93.22
2022-10-04T02:37:30.633Z,93.55
2022-10-04T02:40:14.401Z,93.45
2022-10-04T02:42:56.818Z,93.55
2022-10-04T02:45:34.860Z,93.61
2022-10-04T02:48:14.468Z,93.13
2022-10-04T02:50:50.333Z,92.79
2022-10-04T02:53:32.032Z,93.17
2022-10-04T02:56:03.587Z,93.45
2022-10-04T02:58:39.390Z,93.52
2022-10-04T03:01:09.219Z,92.98
2022-10-04T03:03:41.145Z,92.57
2022-10-04T03:06:13.134Z,92.89
2022-10-04T03:08:48.795Z,93.14
2022-10-04T03:11:20.547Z,92.94
2022-10-04T03:13:54.370Z,93.45
2022-10-04T03:16:24.595Z,93.43
2022-10-04T03:18:58.443Z,93.64
2022-10-04T03:21:28.990Z,93.31
2022-10-04T03:24:00.598Z,93.55
2022-10-04T03:26:34.508Z,93.87
2022-10-04T03:29:09.889Z,94.23
2022-10-04T03:31:43.805Z,93.54
2022-10-04T03:34:17.550Z,93.71
2022-10-04T03:36:49.440Z,94.02
2022-10-04T03:42:07.277Z,93.66
2022-10-04T03:44:39.297Z,93.90
2022-10-04T03:47:11.134Z,94.25
2022-10-04T03:49:51.870Z,93.99
2022-10-04T03:52:26.421Z,93.92
2022-10-04T03:55:09.678Z,94.00
2022-10-04T03:57:40.147Z,94.06
2022-10-04T04:00:19.997Z,95.08
2022-10-04T04:02:54.679Z,95.09
2022-10-04T04:08:16.024Z,93.89
2022-10-04T04:10:49.698Z,93.90
2022-10-04T04:13:25.766Z,93.64
2022-10-04T04:16:05.578Z,93.47
2022-10-04T04:18:38.449Z,93.44
2022-10-04T04:21:08.950Z,93.37
2022-10-04T04:23:48.370Z,93.63
2022-10-04T04:26:25.221Z,94.15
2022-10-04T04:28:58.366Z,94.23
2022-10-04T04:31:37.709Z,94.35
2022-10-04T04:34:17.284Z,93.84
2022-10-04T04:36:46.767Z,94.06
2022-10-04T04:39:33.518Z,94.05
2022-10-04T04:42:16.270Z,93.79
2022-10-04T04:44:55.823Z,93.73
2022-10-04T04:47:33.440Z,93.10
2022-10-04T04:50:08.291Z,92.54
2022-10-04T04:52:39.262Z,92.69
2022-10-04T04:55:17.677Z,92.84
2022-10-04T04:57:47.310Z,92.01
2022-10-04T05:00:21.361Z,91.77
2022-10-04T05:02:58.776Z,91.05
2022-10-04T05:05:39.424Z,89.69
2022-10-04T05:08:16.531Z,88.99
2022-10-04T05:10:56.004Z,88.63
2022-10-04T05:13:40.880Z,88.42
2022-10-04T05:16:16.310Z,88.27
2022-10-04T05:18:58.998Z,86.82
2022-10-04T05:21:32.271Z,86.62
2022-10-04T05:24:12.242Z,86.02
2022-10-04T05:26:44.626Z,85.54
2022-10-04T05:29:20.374Z,85.29
2022-10-04T05:31:55.803Z,84.69
2022-10-04T05:34:40.179Z,84.04
2022-10-04T05:37:25.905Z,83.79
2022-10-04T05:40:04.780Z,82.92
2022-10-04T05:42:42.842Z,82.41
2022-10-04T05:45:20.339Z,81.73
2022-10-04T05:47:53.073Z,82.73
2022-10-04T05:50:33.376Z,81.90
2022-10-04T05:53:24.616Z,80.89
2022-10-04T05:56:22.649Z,80.65
2022-10-04T05:59:06.783Z,78.44
2022-10-04T06:01:45.094Z,78.60
2022-10-04T06:04:33.032Z,78.35
2022-10-04T06:07:16.810Z,78.28
2022-10-04T06:09:58.679Z,77.05
2022-10-04T06:12:35.081Z,76.63
2022-10-04T06:15:25.235Z,76.50
2022-10-04T06:18:17.117Z,76.32
2022-10-04T06:21:20.882Z,76.00
2022-10-04T06:23:58.804Z,75.04
2022-10-04T06:26:32.117Z,74.68
2022-10-04T06:29:05.102Z,74.34
2022-10-04T06:32:03.842Z,74.15
2022-10-04T06:34:52.033Z,73.79
2022-10-04T06:37:35.773Z,73.34
2022-10-04T06:40:33.016Z,72.47
2022-10-04T06:43:21.715Z,72.44
2022-10-04T06:46:07.574Z,72.58
2022-10-04T06:48:56.127Z,72.56
2022-10-04T06:51:42.412Z,71.84
2022-10-04T06:54:27.526Z,71.45
2022-10-04T06:57:25.578Z,70.87
2022-10-04T07:00:10.104Z,69.94
2022-10-04T07:02:44.948Z,70.44
2022-10-04T07:05:21.802Z,69.61
2022-10-04T07:08:06.267Z,69.81
2022-10-04T07:10:49.533Z,69.90
2022-10-04T07:13:48.399Z,68.76
2022-10-04T07:16:31.776Z,68.01
2022-10-04T07:19:10.600Z,67.39
2022-10-04T07:21:47.075Z,66.95
2022-10-04T07:24:26.836Z,66.27
2022-10-04T07:26:57.731Z,66.70
2022-10-04T07:29:31.415Z,65.96
2022-10-04T07:32:19.345Z,64.84
2022-10-04T07:34:54.900Z,64.85
2022-10-04T07:37:32.912Z,63.94
2022-10-04T07:40:06.208Z,63.63
2022-10-04T07:42:51.562Z,61.75
2022-10-04T07:45:30.044Z,61.60
2022-10-04T07:48:11.999Z,61.12
2022-10-04T07:50:48.094Z,61.04
2022-10-04T07:53:20.106Z,59.90
2022-10-04T07:55:57.213Z,60.09
2022-10-04T07:58:46.854Z,59.69
2022-10-04T08:01:30.421Z,58.93
2022-10-04T08:04:17.994Z,58.50
2022-10-04T08:06:58.556Z,57.33
2022-10-04T08:09:48.960Z,58.30
2022-10-04T08:12:26.775Z,58.10
2022-10-04T08:14:58.633Z,57.87
2022-10-04T08:17:49.202Z,56.93
2022-10-04T08:20:38.608Z,57.81
2022-10-04T08:23:41.303Z,57.51
2022-10-04T08:26:25.075Z,56.88
2022-10-04T08:29:18.615Z,56.42
2022-10-04T08:32:05.585Z,56.44
2022-10-04T08:34:56.369Z,56.42
2022-10-04T08:37:35.809Z,56.00
2022-10-04T08:40:36.168Z,56.53
2022-10-04T08:43:33.673Z,56.59
2022-10-04T08:46:34.629Z,56.54
2022-10-04T08:49:23.781Z,55.68
2022-10-04T08:52:27.953Z,55.63
2022-10-04T08:55:34.604Z,56.57
2022-10-04T08:58:15.533Z,56.18
2022-10-04T09:01:04.212Z,55.89
2022-10-04T09:04:13.405Z,56.10
2022-10-04T09:06:49.297Z,56.06
2022-10-04T09:09:52.715Z,56.05
2022-10-04T09:12:51.386Z,55.61
2022-10-04T09:15:37.006Z,55.47
2022-10-04T09:18:23.403Z,55.84
2022-10-04T09:21:11.358Z,55.29
2022-10-04T09:24:14.347Z,54.57
2022-10-04T09:26:47.470Z,54.14
2022-10-04T09:29:37.737Z,55.18
2022-10-04T09:32:26.955Z,55.75
2022-10-04T09:35:34.901Z,56.30
2022-10-04T09:38:40.207Z,56.44
2022-10-04T09:41:52.590Z,56.03
2022-10-04T09:44:46.621Z,55.21
2022-10-04T09:47:37.537Z,54.96
2022-10-04T09:50:54.346Z,54.75
2022-10-04T09:53:50.891Z,54.90
2022-10-04T09:56:50.395Z,54.92
2022-10-04T09:59:39.079Z,55.69
2022-10-04T10:02:42.540Z,55.25
2022-10-04T10:05:46.201Z,54.90
2022-10-04T10:08:28.431Z,55.06
2022-10-04T10:11:21.775Z,55.54
2022-10-04T10:14:31.101Z,55.58
2022-10-04T10:17:09.563Z,55.09
2022-10-04T10:20:05.585Z,54.39
2022-10-04T10:26:04.521Z,53.94
2022-10-04T10:28:54.006Z,54.41
2022-10-04T10:31:47.023Z,53.83
2022-10-04T10:34:43.058Z,53.58
2022-10-04T10:37:18.449Z,53.81
2022-10-04T10:40:11.245Z,54.81
2022-10-04T10:43:06.138Z,54.94
2022-10-04T10:45:49.351Z,55.01
2022-10-04T10:48:29.768Z,56.93
2022-10-04T10:51:16.840Z,59.13
2022-10-04T10:54:29.877Z,64.81
2022-10-04T10:57:07.992Z,69.16
2022-10-04T11:00:14.723Z,71.55
2022-10-04T11:03:13.893Z,73.04
2022-10-04T11:06:09.163Z,75.32
2022-10-04T11:09:27.991Z,77.51
2022-10-04T11:12:19.164Z,77.88
2022-10-04T11:15:16.008Z,76.00
2022-10-04T11:18:19.101Z,75.49
2022-10-04T11:21:15.058Z,74.14
2022-10-04T11:24:14.848Z,74.47
2022-10-04T11:27:13.403Z,75.92
2022-10-04T11:30:11.176Z,77.11
2022-10-04T11:33:33.681Z,78.52
2022-10-04T11:36:26.170Z,77.11
2022-10-04T11:39:23.679Z,78.35
2022-10-04T11:42:07.322Z,77.44
2022-10-04T11:44:59.899Z,77.05
2022-10-04T11:47:43.106Z,77.01
2022-10-04T11:50:38.465Z,76.23
2022-10-04T11:53:36.814Z,75.58
2022-10-04T11:56:38.729Z,75.08
2022-10-04T11:59:26.968Z,75.61
2022-10-04T12:05:23.038Z,75.85
2022-10-04T12:08:16.835Z,75.65
2022-10-04T12:11:01.695Z,75.37
2022-10-04T12:14:03.253Z,74.11
2022-10-04T12:16:58.671Z,73.26
2022-10-04T12:19:58.312Z,72.77
2022-10-04T12:22:54.921Z,72.52
2022-10-04T12:26:10.155Z,72.24
2022-10-04T12:29:17.275Z,72.83
2022-10-04T12:31:53.180Z,73.28
2022-10-04T12:34:31.522Z,73.39
2022-10-04T12:37:18.346Z,73.88
2022-10-04T12:40:08.671Z,75.12
2022-10-04T12:42:50.233Z,75.41
2022-10-04T12:45:34.157Z,75.42
2022-10-04T12:48:29.084Z,75.43
2022-10-04T12:56:47.911Z,74.18
2022-10-04T12:59:34.926Z,74.79
2022-10-04T13:02:25.689Z,75.19
2022-10-04T13:05:07.332Z,75.46
2022-10-04T13:07:50.923Z,75.27
2022-10-04T13:10:39.578Z,75.78
2022-10-04T13:13:49.082Z,75.27
2022-10-04T13:19:24.339Z,74.07
2022-10-04T13:22:08.036Z,72.94
2022-10-04T13:24:54.808Z,73.41
2022-10-04T13:27:33.019Z,72.49
2022-10-04T13:30:22.985Z,72.56
2022-10-04T13:33:07.159Z,72.00
2022-10-04T13:35:58.590Z,72.57
2022-10-04T13:38:53.831Z,72.67
2022-10-04T13:41:39.690Z,73.50
2022-10-04T13:44:38.088Z,73.83
2022-10-04T13:47:38.910Z,74.53
2022-10-04T13:50:28.159Z,74.32
2022-10-04T13:53:23.654Z,74.19
2022-10-04T13:56:12.118Z,74.46
2022-10-04T13:58:50.086Z,75.28
2022-10-04T14:01:48.933Z,75.83
2022-10-04T14:04:57.087Z,76.08
2022-10-04T14:07:50.695Z,76.50
2022-10-04T14:10:38.751Z,76.09
2022-10-04T14:13:31.936Z,76.59
2022-10-04T14:16:33.567Z,77.06
2022-10-04T14:19:41.519Z,77.42
2022-10-04T14:22:46.334Z,77.34
2022-10-04T14:25:46.515Z,77.69
2022-10-04T14:28:57.838Z,78.18
2022-10-04T14:31:57.163Z,78.26
2022-10-04T14:34:54.939Z,78.26
2022-10-04T14:37:53.476Z,78.39
2022-10-04T14:40:54.300Z,78.96
2022-10-04T14:44:14.366Z,79.31
2022-10-04T14:47:00.103Z,78.75
2022-10-04T14:49:45.660Z,79.82
2022-10-04T14:52:34.599Z,79.53
2022-10-04T14:55:20.662Z,79.80
2022-10-04T14:58:19.789Z,79.96
2022-10-04T15:01:20.148Z,80.12
2022-10-04T15:04:13.342Z,80.30
2022-10-04T15:06:50.318Z,79.57
2022-10-04T15:09:52.382Z,79.87
2022-10-04T15:13:10.496Z,79.87
2022-10-04T15:16:03.519Z,79.93
2022-10-04T15:18:37.455Z,79.53
2022-10-04T15:21:22.002Z,79.59
2022-10-04T15:23:56.785Z,79.87
2022-10-04T15:27:08.717Z,80.52
2022-10-04T15:29:48.067Z,80.52
2022-10-04T15:32:35.882Z,80.52
2022-10-04T15:35:25.951Z,80.74
2022-10-04T15:38:00.459Z,80.64
2022-10-04T15:40:50.502Z,81.02
2022-10-04T15:43:30.005Z,81.11
2022-10-04T15:46:35.480Z,80.92
2022-10-04T15:49:41.488Z,81.37
2022-10-04T15:52:21.084Z,81.15
2022-10-04T15:55:20.251Z,81.47
2022-10-04T15:58:19.475Z,81.89
2022-10-04T16:01:06.943Z,82.20
2022-10-04T16:03:45.716Z,81.95
2022-10-04T16:06:24.685Z,82.88
2022-10-04T16:09:16.306Z,82.99
2022-10-04T16:12:02.319Z,82.80
2022-10-04T16:14:57.617Z,82.85
2022-10-04T16:17:50.085Z,83.39
2022-10-04T16:20:57.437Z,83.57
2022-10-04T16:23:34.009Z,83.15
2022-10-04T16:26:05.906Z,82.50
2022-10-04T16:29:04.173Z,82.94
2022-10-04T16:32:02.732Z,82.94
2022-10-04T16:34:47.707Z,82.65
2022-10-04T16:37:30.221Z,82.27
2022-10-04T16:40:10.974Z,81.93
2022-10-04T16:42:54.634Z,82.10
2022-10-04T16:45:48.371Z,82.13
2022-10-04T16:48:31.189Z,81.78
2022-10-04T16:51:32.208Z,82.12
2022-10-04T16:54:10.299Z,81.60
2022-10-04T16:57:16.562Z,81.79
2022-10-04T16:59:50.901Z,81.39
2022-10-04T17:02:48.797Z,80.91
2022-10-04T17:05:42.515Z,80.62
2022-10-04T17:08:27.532Z,80.16
2022-10-04T17:11:33.365Z,80.12
2022-10-04T17:14:20.614Z,79.28
2022-10-04T17:16:57.379Z,78.99
2022-10-04T17:19:39.123Z,78.38
2022-10-04T17:22:23.280Z,78.09
2022-10-04T17:25:03.597Z,78.10
2022-10-04T17:27:48.822Z,77.52
2022-10-04T17:30:28.600Z,77.02
2022-10-04T17:33:14.055Z,77.19
2022-10-04T17:36:03.193Z,76.87
2022-10-04T17:38:43.460Z,76.91
2022-10-04T17:41:26.445Z,77.60
2022-10-04T17:44:33.801Z,78.04
2022-10-04T17:47:14.553Z,78.08
2022-10-04T17:50:14.651Z,78.08
2022-10-04T17:53:06.269Z,77.76
2022-10-04T17:55:46.100Z,77.14
2022-10-04T17:58:24.814Z,76.71
2022-10-04T18:01:01.155Z,76.95
2022-10-04T18:03:41.818Z,76.99
2022-10-04T18:06:26.560Z,77.62
2022-10-04T18:09:00.229Z,77.51
2022-10-04T18:11:36.416Z,77.79
2022-10-04T18:14:12.403Z,78.28
2022-10-04T18:16:54.093Z,78.65
2022-10-04T18:19:47.168Z,79.41
2022-10-04T18:22:18.944Z,79.06
2022-10-04T18:24:50.099Z,79.32
2022-10-04T18:27:22.424Z,80.13
2022-10-04T18:30:14.984Z,81.21
2022-10-04T18:32:48.912Z,81.95
2022-10-04T18:35:26.522Z,83.29
2022-10-04T18:38:03.378Z,83.51
2022-10-04T18:40:36.484Z,84.21
2022-10-04T18:43:26.880Z,85.13
2022-10-04T18:46:04.647Z,84.82
2022-10-04T18:48:53.632Z,85.30
2022-10-04T18:51:30.477Z,85.74
2022-10-04T18:54:21.120Z,86.27
2022-10-04T18:57:04.965Z,85.90
2022-10-04T18:59:57.475Z,86.52
2022-10-04T19:02:40.712Z,86.91
2022-10-04T19:05:20.707Z,86.95
2022-10-04T19:08:11.452Z,88.16
2022-10-04T19:10:44.708Z,87.62
2022-10-04T19:13:35.371Z,88.21
2022-10-04T19:16:34.697Z,88.87
2022-10-04T19:19:33.002Z,88.59
2022-10-04T19:22:15.043Z,88.68
2022-10-04T19:24:54.741Z,88.55
2022-10-04T19:27:28.649Z,87.70
2022-10-04T19:30:12.260Z,88.06
2022-10-04T19:32:56.487Z,87.82
2022-10-04T19:35:50.715Z,87.68
2022-10-04T19:38:35.722Z,86.99
2022-10-04T19:41:14.936Z,86.47
2022-10-04T19:43:53.963Z,86.32
2022-10-04T19:46:42.603Z,86.21
2022-10-04T19:49:26.926Z,86.11
2022-10-04T19:52:15.072Z,86.04
2022-10-04T19:54:44.253Z,86.30
2022-10-04T19:57:16.683Z,86.92
2022-10-04T19:59:48.156Z,87.24
2022-10-04T20:02:23.899Z,87.29
2022-10-04T20:04:53.566Z,87.12
2022-10-04T20:07:27.008Z,86.73
2022-10-04T20:10:00.132Z,86.01
2022-10-04T20:12:44.926Z,86.41
2022-10-04T20:15:46.000Z,86.22
2022-10-04T20:18:44.826Z,85.97
2022-10-04T20:21:30.639Z,85.52
2022-10-04T20:24:01.228Z,85.88
2022-10-04T20:26:56.333Z,86.03
2022-10-04T20:30:05.997Z,86.72
2022-10-04T20:33:01.806Z,86.71
2022-10-04T20:36:08.719Z,86.84
2022-10-04T20:38:52.954Z,86.96
2022-10-04T20:42:13.734Z,87.09
2022-10-04T20:44:53.774Z,86.96
2022-10-04T20:47:51.290Z,87.01
2022-10-04T20:50:38.434Z,87.02
2022-10-04T20:53:17.056Z,86.82
2022-10-04T20:55:47.578Z,86.89
2022-10-04T20:58:28.109Z,87.82
2022-10-04T21:01:02.283Z,87.34
2022-10-04T21:03:33.656Z,87.78
2022-10-04T21:06:08.031Z,88.07
2022-10-04T21:11:20.997Z,87.73
2022-10-04T21:13:53.807Z,87.73
2022-10-04T21:16:46.377Z,88.00
2022-10-04T21:19:47.667Z,87.71
2022-10-04T21:22:35.470Z,87.87
2022-10-04T21:25:07.699Z,87.58
2022-10-04T21:27:38.225Z,87.29
2022-10-04T21:30:14.554Z,87.55
2022-10-04T21:32:49.046Z,87.34
2022-10-04T21:35:22.955Z,87.27
2022-10-04T21:37:52.395Z,87.18
2022-10-04T21:40:21.793Z,87.23
2022-10-04T21:42:51.169Z,86.70
2022-10-04T21:45:20.179Z,86.58
2022-10-04T21:47:52.250Z,86.29
2022-10-04T21:50:23.263Z,86.10
2022-10-04T21:52:52.552Z,85.71
2022-10-04T21:55:26.729Z,85.67
2022-10-04T21:57:55.960Z,85.27
2022-10-04T22:00:25.256Z,85.00
2022-10-04T22:02:54.558Z,85.19
2022-10-04T22:05:30.932Z,84.99
2022-10-04T22:08:00.231Z,84.91
2022-10-04T22:10:29.499Z,84.89
2022-10-04T22:12:58.782Z,85.21
2022-10-04T22:15:29.766Z,84.82
2022-10-04T22:18:05.573Z,84.63
2022-10-04T22:20:37.307Z,84.17
2022-10-04T22:23:18.303Z,84.23
2022-10-04T22:25:47.801Z,84.48
2022-10-04T22:28:22.711Z,83.96
2022-10-04T22:30:55.262Z,84.12
2022-10-04T22:33:34.429Z,83.93
2022-10-04T22:36:14.721Z,84.08
2022-10-04T22:38:46.656Z,83.78
2022-10-04T22:41:19.633Z,83.65
2022-10-04T22:43:55.808Z,83.56
2022-10-04T22:46:30.005Z,83.17
2022-10-04T22:48:59.266Z,83.49
2022-10-04T22:51:31.953Z,83.37
2022-10-04T22:54:01.156Z,83.88
2022-10-04T22:56:35.360Z,83.97
2022-10-04T22:59:04.578Z,83.49
2022-10-04T23:01:33.897Z,83.74
2022-10-04T23:04:03.025Z,83.91
2022-10-04T23:06:34.572Z,84.35
2022-10-04T23:09:10.352Z,84.66
2022-10-04T23:11:39.505Z,84.64
2022-10-04T23:14:08.589Z,84.76
2022-10-04T23:16:44.491Z,85.16
2022-10-04T23:19:18.270Z,85.29
2022-10-04T23:21:52.069Z,85.15
2022-10-04T23:24:25.147Z,85.22
2022-10-04T23:26:57.483Z,85.59
2022-10-04T23:29:34.522Z,85.15
2022-10-04T23:32:11.630Z,85.99
2022-10-04T23:34:43.364Z,85.60
2022-10-04T23:37:24.817Z,86.29
2022-10-04T23:39:59.998Z,85.98
2022-10-04T23:42:33.053Z,86.00
2022-10-04T23:45:03.344Z,85.70
2022-10-04T23:47:36.497Z,85.74
2022-10-04T23:50:19.333Z,86.38
2022-10-04T23:52:51.696Z,86.13
2022-10-04T23:55:23.988Z,86.39
